Time;durP1;ratioP1;P1;durP2;ratioP2;P2;SDS_P1;SDS_P2;PMS_P1;PMS_P2;Temp;Humidity;BMP_temperature;BMP_pressure;BME280_temperature;BME280_humidity;BME280_pressure;Samples;Min_cycle;Max_cycle;Signal;HPM_P1;HPM_P2
2021/07/23 00:01:47;;;;;;;;;;;19.60;99.90;;;;;;5099163;28;19925;-84
2021/07/23 00:04:14;;;;;;;;;;;19.60;99.90;;;;;;5099197;28;19924;-85
2021/07/23 00:34:33;;;;;;;;;;;19.30;99.90;;;;;;5098989;28;20333;-86
2021/07/23 00:37:02;;;;;;;;;;;19.20;99.90;;;;;;5098645;28;19956;-86
2021/07/23 00:39:29;;;;;;;;;;;19.20;99.90;;;;;;5098513;28;19924;-87
2021/07/23 00:41:55;;;;;;;;;;;19.20;99.90;;;;;;5098513;28;19924;-87
2021/07/23 00:44:22;;;;;;;;;;;19.10;99.90;;;;;;5098531;28;19935;-87
2021/07/23 00:46:49;;;;;;;;;;;19.20;99.90;;;;;;5098404;28;19935;-87
2021/07/23 00:49:16;;;;;;;;;;;19.10;99.90;;;;;;5098228;28;20248;-87
2021/07/23 00:51:43;;;;;;;;;;;19.10;99.90;;;;;;5097983;28;19924;-87
2021/07/23 00:54:11;;;;;;;;;;;19.10;99.90;;;;;;5098479;28;19924;-87
2021/07/23 00:56:38;;;;;;;;;;;19.10;99.90;;;;;;5098459;28;20261;-88
2021/07/23 00:59:05;;;;;;;;;;;19.00;99.90;;;;;;5098248;28;20341;-87
2021/07/23 01:01:32;;;;;;;;;;;19.10;99.90;;;;;;5098149;28;19930;-87
2021/07/23 01:03:59;;;;;;;;;;;19.00;99.90;;;;;;5097734;28;19934;-87
2021/07/23 01:06:26;;;;;;;;;;;19.00;99.90;;;;;;5097981;28;20329;-87
2021/07/23 01:08:52;;;;;;;;;;;19.00;99.90;;;;;;5097980;28;19934;-87
2021/07/23 01:11:21;;;;;;;;;;;19.00;99.90;;;;;;5097966;28;19935;-88
2021/07/23 01:13:47;;;;;;;;;;;18.90;99.90;;;;;;5098123;28;19924;-87
2021/07/23 01:16:14;;;;;;;;;;;18.90;99.90;;;;;;5097866;28;19928;-88
2021/07/23 01:18:42;;;;;;;;;;;18.90;99.90;;;;;;5097710;28;19924;-88
2021/07/23 01:21:09;;;;;;;;;;;18.90;99.90;;;;;;5097932;28;20319;-88
2021/07/23 01:23:37;;;;;;;;;;;18.90;99.90;;;;;;5097828;28;20338;-88
2021/07/23 01:26:04;;;;;;;;;;;18.90;99.90;;;;;;5097778;28;19924;-88
2021/07/23 01:28:31;;;;;;;;;;;18.80;99.90;;;;;;5097749;28;19924;-88
2021/07/23 01:30:58;;;;;;;;;;;18.80;99.90;;;;;;5097592;28;19927;-88
2021/07/23 01:33:25;;;;;;;;;;;18.80;99.90;;;;;;5097416;28;19924;-88
2021/07/23 01:35:52;;;;;;;;;;;18.80;99.90;;;;;;5097528;28;19924;-88
2021/07/23 01:38:19;;;;;;;;;;;18.80;99.90;;;;;;5097528;28;19924;-88
2021/07/23 01:40:47;;;;;;;;;;;18.80;99.90;;;;;;5097386;28;20372;-87
2021/07/23 01:43:14;;;;;;;;;;;18.70;99.90;;;;;;5097142;28;19928;-87
2021/07/23 01:45:41;;;;;;;;;;;18.70;99.90;;;;;;5097226;28;20357;-87
2021/07/23 01:48:08;;;;;;;;;;;18.60;99.90;;;;;;5097204;28;19938;-87
2021/07/23 01:50:35;;;;;;;;;;;18.60;99.90;;;;;;5097119;28;19932;-87
2021/07/23 01:53:01;;;;;;;;;;;18.60;99.90;;;;;;5096870;28;19934;-85
2021/07/23 01:55:28;;;;;;;;;;;18.60;99.90;;;;;;5097134;28;19924;-87
2021/07/23 01:57:56;;;;;;;;;;;18.60;99.90;;;;;;5096909;28;19934;-87
2021/07/23 02:00:23;;;;;;;;;;;18.60;99.90;;;;;;5096923;28;19928;-87
2021/07/23 02:02:50;;;;;;;;;;;18.50;99.90;;;;;;5096791;28;19924;-87
2021/07/23 02:05:17;;;;;;;;;;;18.60;99.90;;;;;;5097265;28;19934;-87
2021/07/23 02:07:44;;;;;;;;;;;18.60;99.90;;;;;;5096739;28;19928;-87
2021/07/23 02:10:11;;;;;;;;;;;18.60;99.90;;;;;;5096694;28;20399;-87
2021/07/23 02:12:38;;;;;;;;;;;18.60;99.90;;;;;;5096574;28;19924;-85
2021/07/23 02:15:07;;;;;;;;;;;18.60;99.90;;;;;;5095685;28;19990;-85
2021/07/23 02:17:34;;;;;;;;;;;18.50;99.90;;;;;;5096581;28;19927;-85
2021/07/23 02:20:01;;;;;;;;;;;18.50;99.90;;;;;;5096797;28;19930;-85
2021/07/23 02:22:28;;;;;;;;;;;18.50;99.90;;;;;;5096461;28;19935;-87
2021/07/23 02:24:55;;;;;;;;;;;18.40;99.90;;;;;;5096517;28;19928;-87
2021/07/23 02:27:22;;;;;;;;;;;18.40;99.90;;;;;;5096533;28;19934;-87
2021/07/23 02:29:48;;;;;;;;;;;18.40;99.90;;;;;;5096330;28;19924;-85
2021/07/23 02:32:17;;;;;;;;;;;18.40;99.90;;;;;;5096472;28;19924;-86
2021/07/23 02:34:43;;;;;;;;;;;18.40;99.90;;;;;;5096262;28;20368;-84
2021/07/23 02:37:10;;;;;;;;;;;18.40;99.90;;;;;;5096134;28;19924;-86
2021/07/23 02:39:37;;;;;;;;;;;18.40;99.90;;;;;;5096205;28;19934;-86
2021/07/23 02:42:04;;;;;;;;;;;18.40;99.90;;;;;;5096068;28;19938;-87
2021/07/23 02:44:31;;;;;;;;;;;18.30;99.90;;;;;;5095997;28;20300;-86
2021/07/23 02:46:58;;;;;;;;;;;18.30;99.90;;;;;;5096033;28;19931;-86
2021/07/23 02:49:26;;;;;;;;;;;18.30;99.90;;;;;;5096039;28;19928;-86
2021/07/23 02:51:53;;;;;;;;;;;18.30;99.90;;;;;;5095853;28;19928;-86
2021/07/23 02:54:20;;;;;;;;;;;18.30;99.90;;;;;;5095920;28;19924;-86
2021/07/23 02:56:46;;;;;;;;;;;18.20;99.90;;;;;;5095745;28;19934;-86
2021/07/23 02:59:13;;;;;;;;;;;18.20;99.90;;;;;;5096095;28;19924;-85
2021/07/23 03:01:40;;;;;;;;;;;18.20;99.90;;;;;;5095954;28;20035;-85
2021/07/23 03:04:07;;;;;;;;;;;18.20;99.90;;;;;;5095903;28;20249;-85
2021/07/23 03:06:35;;;;;;;;;;;18.10;99.90;;;;;;5095645;28;20273;-85
2021/07/23 03:09:02;;;;;;;;;;;18.20;99.90;;;;;;5095760;28;19924;-85
2021/07/23 03:11:29;;;;;;;;;;;18.10;99.90;;;;;;5095605;28;19934;-85
2021/07/23 03:13:58;;;;;;;;;;;18.10;99.90;;;;;;5094817;28;21268;-85
2021/07/23 03:16:25;;;;;;;;;;;18.10;99.90;;;;;;5095765;28;19936;-85
2021/07/23 03:18:52;;;;;;;;;;;18.10;99.90;;;;;;5095637;28;20300;-85
2021/07/23 03:21:20;;;;;;;;;;;18.00;99.90;;;;;;5095377;28;20346;-85
2021/07/23 03:23:49;;;;;;;;;;;18.00;99.90;;;;;;5095537;28;19924;-84
2021/07/23 03:26:16;;;;;;;;;;;17.90;99.90;;;;;;5095321;28;19924;-85
2021/07/23 03:28:43;;;;;;;;;;;17.90;99.90;;;;;;5095583;28;19924;-85
2021/07/23 03:31:11;;;;;;;;;;;17.90;99.90;;;;;;5095443;28;19950;-84
2021/07/23 03:33:38;;;;;;;;;;;17.90;99.90;;;;;;5095256;28;19924;-84
2021/07/23 03:36:05;;;;;;;;;;;17.80;99.90;;;;;;5095251;28;19938;-85
2021/07/23 03:38:32;;;;;;;;;;;17.80;99.90;;;;;;5095269;28;19924;-84
2021/07/23 03:41:00;;;;;;;;;;;17.80;99.90;;;;;;5095234;28;19924;-84
2021/07/23 03:43:27;;;;;;;;;;;17.80;99.90;;;;;;5095278;28;19924;-82
2021/07/23 03:45:54;;;;;;;;;;;17.70;99.90;;;;;;5095097;28;20289;-84
2021/07/23 03:48:21;;;;;;;;;;;17.70;99.90;;;;;;5095053;28;19924;-84
2021/07/23 03:50:48;;;;;;;;;;;17.70;99.90;;;;;;5095104;28;19928;-84
2021/07/23 03:53:15;;;;;;;;;;;17.70;99.90;;;;;;5094838;28;19928;-84
2021/07/23 03:55:42;;;;;;;;;;;17.60;99.90;;;;;;5095281;28;19934;-84
2021/07/23 03:58:10;;;;;;;;;;;17.60;99.90;;;;;;5095115;28;19934;-83
2021/07/23 04:00:37;;;;;;;;;;;17.60;99.90;;;;;;5095016;28;20364;-81
2021/07/23 04:03:04;;;;;;;;;;;17.60;99.90;;;;;;5094759;28;19924;-81
2021/07/23 04:05:31;;;;;;;;;;;17.50;99.90;;;;;;5094979;28;19934;-81
2021/07/23 04:07:58;;;;;;;;;;;17.50;99.90;;;;;;5094876;28;19924;-84
2021/07/23 04:10:26;;;;;;;;;;;17.50;99.90;;;;;;5095047;28;19924;-81
2021/07/23 04:12:53;;;;;;;;;;;17.50;99.90;;;;;;5095162;28;20332;-83
2021/07/23 04:15:21;;;;;;;;;;;17.40;99.90;;;;;;5095083;28;19924;-84
2021/07/23 04:17:48;;;;;;;;;;;17.40;99.90;;;;;;5094750;28;19924;-84
2021/07/23 04:20:15;;;;;;;;;;;17.40;99.90;;;;;;5094910;28;19934;-81
2021/07/23 04:22:42;;;;;;;;;;;17.30;99.90;;;;;;5094737;28;19924;-82
2021/07/23 04:25:10;;;;;;;;;;;17.40;99.90;;;;;;5095020;28;20250;-83
2021/07/23 04:27:36;;;;;;;;;;;17.30;99.90;;;;;;5094755;28;20377;-83
2021/07/23 04:30:03;;;;;;;;;;;17.30;99.90;;;;;;5094799;28;19934;-81
2021/07/23 04:32:32;;;;;;;;;;;17.30;99.90;;;;;;5094837;28;19924;-81
2021/07/23 04:34:58;;;;;;;;;;;17.30;99.90;;;;;;5095051;28;19934;-81
2021/07/23 04:37:25;;;;;;;;;;;17.30;99.90;;;;;;5095376;28;19931;-83
2021/07/23 04:39:52;;;;;;;;;;;17.30;99.90;;;;;;5098679;28;19924;-83
2021/07/23 04:42:19;;;;;;;;;;;17.30;99.90;;;;;;5098648;28;19924;-83
2021/07/23 04:44:46;;;;;;;;;;;17.30;99.90;;;;;;5098566;28;20052;-81
2021/07/23 04:47:13;;;;;;;;;;;17.30;99.90;;;;;;5098430;28;20353;-80
2021/07/23 04:49:41;;;;;;;;;;;17.30;99.90;;;;;;5098239;28;19938;-81
2021/07/23 04:52:08;;;;;;;;;;;17.30;99.90;;;;;;5098150;28;19924;-83
2021/07/23 04:54:34;;;;;;;;;;;17.30;99.90;;;;;;5098309;28;19934;-83
2021/07/23 04:57:01;;;;;;;;;;;17.30;99.90;;;;;;5098354;28;20027;-83
2021/07/23 04:59:28;;;;;;;;;;;17.30;99.90;;;;;;5098377;28;20018;-83
2021/07/23 05:01:55;;;;;;;;;;;17.30;99.90;;;;;;5097989;28;20384;-83
2021/07/23 05:04:22;;;;;;;;;;;17.40;99.90;;;;;;5098138;28;19934;-83
2021/07/23 05:06:50;;;;;;;;;;;17.40;99.90;;;;;;5098179;28;19934;-80
2021/07/23 05:09:17;;;;;;;;;;;17.40;99.90;;;;;;5097922;28;20281;-81
2021/07/23 05:11:44;;;;;;;;;;;17.40;99.90;;;;;;5097945;28;19924;-83
2021/07/23 05:14:10;;;;;;;;;;;17.50;99.90;;;;;;5097846;28;19924;-83
2021/07/23 05:16:37;;;;;;;;;;;17.50;99.90;;;;;;5097800;28;19924;-83
2021/07/23 05:19:04;;;;;;;;;;;17.50;99.90;;;;;;5097772;28;19924;-82
2021/07/23 05:21:31;;;;;;;;;;;17.50;99.90;;;;;;5097927;28;19950;-83
2021/07/23 05:24:03;;;;;;;;;;;17.50;99.90;;;;;;5097623;28;20360;-83
2021/07/23 05:26:31;;;;;;;;;;;17.60;99.90;;;;;;5097912;28;20298;-83
2021/07/23 05:28:58;;;;;;;;;;;17.60;99.90;;;;;;5097494;28;19924;-81
2021/07/23 05:31:25;;;;;;;;;;;17.60;99.90;;;;;;5097387;28;19924;-80
2021/07/23 05:33:52;;;;;;;;;;;17.70;99.90;;;;;;5097391;28;19924;-83
2021/07/23 05:36:18;;;;;;;;;;;17.70;99.90;;;;;;5097624;28;19928;-83
2021/07/23 05:38:45;;;;;;;;;;;17.70;99.90;;;;;;5097349;28;20239;-82
2021/07/23 05:41:14;;;;;;;;;;;17.80;99.90;;;;;;5097317;28;19930;-81
2021/07/23 05:43:40;;;;;;;;;;;17.80;99.90;;;;;;5097293;28;19924;-83
2021/07/23 05:46:08;;;;;;;;;;;17.80;99.90;;;;;;5097157;28;19928;-83
2021/07/23 05:48:35;;;;;;;;;;;17.80;99.90;;;;;;5096664;28;19932;-83
2021/07/23 05:51:03;;;;;;;;;;;17.90;99.90;;;;;;5096896;28;19934;-83
2021/07/23 05:53:30;;;;;;;;;;;17.90;99.90;;;;;;5097082;28;19931;-84
2021/07/23 05:55:58;;;;;;;;;;;18.00;99.90;;;;;;5097071;28;19924;-84
2021/07/23 05:58:26;;;;;;;;;;;18.00;99.90;;;;;;5097126;28;19924;-84
2021/07/23 06:00:53;;;;;;;;;;;18.10;99.90;;;;;;5096984;28;19939;-84
2021/07/23 06:03:20;;;;;;;;;;;18.10;99.90;;;;;;5097061;28;19924;-83
2021/07/23 06:05:47;;;;;;;;;;;18.20;99.90;;;;;;5096941;28;20253;-84
2021/07/23 06:08:14;;;;;;;;;;;18.20;99.90;;;;;;5096780;28;19924;-84
2021/07/23 06:10:40;;;;;;;;;;;18.20;99.90;;;;;;5096757;28;19924;-84
2021/07/23 06:13:07;;;;;;;;;;;18.30;99.90;;;;;;5096844;28;19928;-84
2021/07/23 06:15:35;;;;;;;;;;;18.40;99.90;;;;;;5096633;28;19925;-83
2021/07/23 06:18:02;;;;;;;;;;;18.50;99.90;;;;;;5096515;28;20276;-84
2021/07/23 06:20:29;;;;;;;;;;;18.70;99.90;;;;;;5096617;28;20016;-83
2021/07/23 06:22:56;;;;;;;;;;;18.90;99.90;;;;;;5096594;28;19931;-83
2021/07/23 06:25:23;;;;;;;;;;;19.00;99.90;;;;;;5096370;28;19935;-83
2021/07/23 06:27:50;;;;;;;;;;;19.30;99.90;;;;;;5096522;28;19942;-83
2021/07/23 06:30:17;;;;;;;;;;;19.50;99.90;;;;;;5096522;28;19935;-83
2021/07/23 06:32:45;;;;;;;;;;;19.60;99.90;;;;;;5096439;28;19935;-83
2021/07/23 06:35:12;;;;;;;;;;;19.70;99.90;;;;;;5096424;28;19924;-83
2021/07/23 06:37:39;;;;;;;;;;;20.00;99.90;;;;;;5096323;28;19953;-83
2021/07/23 06:40:06;;;;;;;;;;;20.30;99.90;;;;;;5096229;28;20357;-83
2021/07/23 06:42:35;;;;;;;;;;;20.60;99.90;;;;;;5096118;28;20371;-83
2021/07/23 06:45:02;;;;;;;;;;;20.90;99.90;;;;;;5096049;28;19954;-83
2021/07/23 06:47:29;;;;;;;;;;;21.60;99.90;;;;;;5096308;28;19928;-83
2021/07/23 06:49:57;;;;;;;;;;;22.60;99.90;;;;;;5096179;28;19930;-83
2021/07/23 06:52:24;;;;;;;;;;;23.80;99.90;;;;;;5095652;28;19934;-83
2021/07/23 06:54:51;;;;;;;;;;;24.80;99.90;;;;;;5095838;28;19924;-83
2021/07/23 06:57:19;;;;;;;;;;;25.30;99.90;;;;;;5096042;28;19928;-83
2021/07/23 06:59:46;;;;;;;;;;;25.70;99.90;;;;;;5095562;28;20408;-83
2021/07/23 07:02:12;;;;;;;;;;;26.30;99.90;;;;;;5095623;28;19930;-83
2021/07/23 07:04:39;;;;;;;;;;;26.70;99.90;;;;;;5095633;28;19924;-83
2021/07/23 07:07:11;;;;;;;;;;;26.80;99.90;;;;;;5095781;28;19924;-83
2021/07/23 07:09:39;;;;;;;;;;;26.80;99.90;;;;;;5095803;28;19924;-83
2021/07/23 07:12:06;;;;;;;;;;;26.70;99.90;;;;;;5095640;28;20330;-83
2021/07/23 07:14:34;;;;;;;;;;;26.40;99.90;;;;;;5095558;28;20359;-85
2021/07/23 07:17:00;;;;;;;;;;;26.50;99.90;;;;;;5095804;28;19985;-78
2021/07/23 07:19:27;;;;;;;;;;;26.80;99.90;;;;;;5094710;28;20277;-79
2021/07/23 07:21:54;;;;;;;;;;;27.10;99.90;;;;;;5095199;28;19924;-79
2021/07/23 07:24:23;;;;;;;6.88;4.40;;;27.60;99.90;;;;;;5093786;28;20412;-79
2021/07/23 07:26:50;;;;;;;7.30;3.65;;;28.50;99.90;;;;;;5094804;28;20050;-79
2021/07/23 07:29:17;;;;;;;5.50;4.03;;;29.10;99.90;;;;;;5095149;28;20054;-79
2021/07/23 07:31:45;;;;;;;7.00;4.28;;;29.70;99.90;;;;;;5095096;28;20052;-79
2021/07/23 07:34:12;;;;;;;6.43;3.95;;;30.10;99.00;;;;;;5095063;28;20052;-79
2021/07/23 07:36:39;;;;;;;5.80;4.13;;;29.90;97.20;;;;;;5094821;28;20052;-79
2021/07/23 07:39:07;;;;;;;6.97;3.83;;;29.70;97.40;;;;;;5094604;28;20054;-79
2021/07/23 07:41:35;;;;;;;7.63;4.47;;;30.00;99.00;;;;;;5094617;28;20454;-79
2021/07/23 07:44:02;;;;;;;8.93;5.38;;;30.30;96.20;;;;;;5094693;28;20479;-79
2021/07/23 07:46:29;;;;;;;9.20;5.47;;;30.70;90.30;;;;;;5094902;28;20052;-79
2021/07/23 07:48:56;;;;;;;9.55;5.93;;;31.20;90.90;;;;;;5094656;28;20047;-79
2021/07/23 07:51:23;;;;;;;8.93;4.47;;;31.90;75.80;;;;;;5094723;28;20457;-79
2021/07/23 07:53:50;;;;;;;7.95;5.60;;;32.70;81.40;;;;;;5094361;28;20063;-79
2021/07/23 07:56:17;;;;;;;8.52;5.30;;;32.70;74.30;;;;;;5094460;28;20044;-79
2021/07/23 07:58:46;;;;;;;7.97;5.50;;;32.70;69.40;;;;;;5094496;28;20052;-79
2021/07/23 08:01:14;;;;;;;6.95;5.20;;;33.00;74.00;;;;;;5094525;28;20062;-79
2021/07/23 08:03:41;;;;;;;8.35;5.57;;;33.50;65.50;;;;;;5094411;28;20064;-79
2021/07/23 08:06:11;;;;;;;7.43;5.30;;;33.60;66.40;;;;;;5094433;28;20048;-79
2021/07/23 08:08:38;;;;;;;8.82;5.70;;;33.70;66.70;;;;;;5094657;28;20048;-79
2021/07/23 08:11:05;;;;;;;7.78;5.57;;;34.20;63.10;;;;;;5094410;28;20519;-79
2021/07/23 08:13:32;;;;;;;7.45;5.15;;;34.40;63.40;;;;;;5097232;28;20058;-80
2021/07/23 08:16:00;;;;;;;9.00;5.43;;;34.60;61.60;;;;;;5098472;28;20050;-80
2021/07/23 08:18:28;;;;;;;11.65;5.68;;;34.00;61.70;;;;;;5098431;28;20058;-79
2021/07/23 08:20:55;;;;;;;7.55;5.20;;;33.80;63.90;;;;;;5098366;28;20469;-79
2021/07/23 08:23:22;;;;;;;8.57;5.78;;;33.70;63.20;;;;;;5098559;28;20044;-79
2021/07/23 08:25:49;;;;;;;8.63;5.60;;;33.70;64.20;;;;;;5098320;28;20054;-79
2021/07/23 08:28:16;;;;;;;7.05;5.15;;;32.80;65.70;;;;;;5098218;28;20472;-79
2021/07/23 08:30:43;;;;;;;7.35;4.90;;;31.20;67.50;;;;;;5098304;28;20437;-79
2021/07/23 08:33:12;;;;;;;12.80;5.20;;;29.40;82.40;;;;;;5098163;28;20062;-79
2021/07/23 08:35:41;;;;;;;10.05;5.80;;;28.10;98.80;;;;;;5097952;28;20050;-79
2021/07/23 08:38:08;;;;;;;12.88;5.35;;;27.10;99.90;;;;;;5098306;28;20079;-79
2021/07/23 08:40:35;;;;;;;8.95;6.13;;;26.50;99.90;;;;;;5098015;28;20044;-79
2021/07/23 08:43:03;;;;;;;11.50;6.07;;;26.00;99.90;;;;;;5098086;28;20384;-79
2021/07/23 08:45:30;;;;;;;11.73;6.72;;;25.60;99.90;;;;;;5097875;28;20109;-79
2021/07/23 08:47:57;;;;;;;10.77;5.82;;;25.30;99.90;;;;;;5097842;28;20044;-79
2021/07/23 08:50:26;;;;;;;;;;;24.90;99.90;;;;;;5098318;28;20090;-82
2021/07/23 08:52:54;;;;;;;13.07;7.25;;;24.80;99.90;;;;;;5096565;28;20835;-82
2021/07/23 08:55:21;;;;;;;12.07;7.13;;;24.60;99.90;;;;;;5097661;28;20059;-80
2021/07/23 08:57:48;;;;;;;9.85;5.78;;;24.50;99.90;;;;;;5096613;28;20052;-80
2021/07/23 09:00:18;;;;;;;12.70;6.05;;;24.40;99.90;;;;;;5095940;28;20062;-80
2021/07/23 09:02:52;;;;;;;13.38;6.10;;;24.30;99.90;;;;;;5097372;28;20048;-80
2021/07/23 09:05:19;;;;;;;;;;;24.20;99.90;;;;;;5098154;28;20062;-80
2021/07/23 09:07:47;;;;;;;;;;;24.20;99.90;;;;;;5097748;28;20260;-80
2021/07/23 09:10:20;;;;;;;;;;;24.00;99.90;;;;;;5097053;28;19919;-80
2021/07/23 09:12:50;;;;;;;;;;;23.90;99.90;;;;;;5097009;28;19920;-80
2021/07/23 09:15:26;;;;;;;;;;;24.00;99.90;;;;;;5096922;28;19920;-80
2021/07/23 09:17:53;;;;;;;;;;;23.90;99.90;;;;;;5096969;28;20379;-80
2021/07/23 09:20:24;;;;;;;;;;;23.90;99.90;;;;;;5097665;28;19924;-80
2021/07/23 09:22:52;;;;;;;;;;;23.80;99.90;;;;;;5097501;28;19945;-80
2021/07/23 09:25:35;;;;;;;;;;;23.70;99.90;;;;;;5097499;28;19920;-81
2021/07/23 09:28:02;;;;;;;;;;;23.60;99.90;;;;;;5097660;28;19946;-81
2021/07/23 09:30:41;;;;;;;;;;;23.60;99.90;;;;;;5096977;28;19920;-80
2021/07/23 09:33:08;;;;;;;;;;;23.60;99.90;;;;;;5097565;28;19920;-80
2021/07/23 09:35:35;;;;;;;;;;;23.50;99.90;;;;;;5097582;28;19920;-81
2021/07/23 09:38:04;;;;;;;;;;;23.60;99.90;;;;;;5097537;28;19919;-81
2021/07/23 09:40:39;;;;;;;;;;;23.50;99.90;;;;;;5097357;28;20023;-81
2021/07/23 09:43:06;;;;;;;;;;;23.40;99.90;;;;;;5097390;28;20256;-80
2021/07/23 09:45:33;;;;;;;;;;;23.30;99.90;;;;;;5097200;28;19920;-80
2021/07/23 09:48:09;;;;;;;;;;;23.30;99.90;;;;;;5097351;28;20261;-80
2021/07/23 09:50:39;;;;;;;;;;;23.30;99.90;;;;;;5097352;28;19947;-80
2021/07/23 09:53:07;;;;;;;;;;;23.20;99.90;;;;;;5096983;28;20273;-80
2021/07/23 09:55:34;;;;;;;;;;;23.10;99.90;;;;;;5097072;28;20341;-80
2021/07/23 09:58:02;;;;;;;;;;;23.00;99.90;;;;;;5097084;28;19920;-81
2021/07/23 10:00:29;;;;;;;;;;;23.00;99.90;;;;;;5097264;28;19930;-80
2021/07/23 10:02:56;;;;;;;;;;;23.00;99.90;;;;;;5097090;28;19920;-80
2021/07/23 10:05:23;;;;;;;;;;;23.00;99.90;;;;;;5096746;28;19924;-80
2021/07/23 10:07:52;;;;;;;;;;;22.90;99.90;;;;;;5095881;28;19920;-80
2021/07/23 10:10:20;;;;;;;;;;;22.90;99.90;;;;;;5096791;28;19959;-80
2021/07/23 10:12:47;;;;;;;;;;;23.00;99.90;;;;;;5097014;28;20264;-80
2021/07/23 10:15:14;;;;;;;;;;;23.00;99.90;;;;;;5096750;28;19920;-80
2021/07/23 10:17:41;;;;;;;;;;;23.00;99.90;;;;;;5096603;28;19924;-81
2021/07/23 10:20:08;;;;;;;;;;;23.00;99.90;;;;;;5096608;28;19920;-80
2021/07/23 10:22:35;;;;;;;;;;;23.00;99.90;;;;;;5096525;28;19920;-80
2021/07/23 10:25:02;;;;;;;;;;;22.90;99.90;;;;;;5096444;28;19969;-80
2021/07/23 10:27:30;;;;;;;;;;;22.90;99.90;;;;;;5096512;28;19920;-80
2021/07/23 10:29:57;;;;;;;;;;;22.90;99.90;;;;;;5096749;28;19919;-80
2021/07/23 10:32:30;;;;;;;;;;;23.00;99.90;;;;;;5096379;28;19920;-80
2021/07/23 10:34:58;;;;;;;;;;;22.90;99.90;;;;;;5096008;28;19931;-80
2021/07/23 10:37:43;;;;;;;;;;;22.90;99.90;;;;;;5096310;28;19920;-81
2021/07/23 10:40:13;;;;;;;;;;;22.80;99.90;;;;;;5096227;28;19934;-81
2021/07/23 10:42:42;;;;;;;;;;;22.80;99.90;;;;;;5096201;28;19924;-80
2021/07/23 10:45:11;;;;;;;;;;;22.90;99.90;;;;;;5096099;28;20253;-80
2021/07/23 10:47:41;;;;;;;;;;;23.00;99.90;;;;;;5096221;28;20011;-80
2021/07/23 10:50:09;;;;;;;;;;;23.00;99.90;;;;;;5096037;28;19920;-80
2021/07/23 10:52:36;;;;;;;;;;;23.00;99.90;;;;;;5095692;28;19920;-80
2021/07/23 10:55:10;;;;;;;;;;;23.00;99.90;;;;;;5095884;28;20325;-82
2021/07/23 10:57:37;;;;;;;;;;;23.10;99.90;;;;;;5095879;28;19927;-80
2021/07/23 11:00:06;;;;;;;;;;;23.10;99.90;;;;;;5096008;28;19920;-81
2021/07/23 11:02:45;;;;;;;;;;;23.20;99.90;;;;;;5095555;28;20006;-80
2021/07/23 11:05:13;;;;;;;;;;;23.10;99.90;;;;;;5095852;28;19981;-80
2021/07/23 11:07:40;;;;;;;;;;;23.10;99.90;;;;;;5095750;28;19993;-80
2021/07/23 11:10:09;;;;;;;;;;;23.10;99.90;;;;;;5095629;28;19920;-80
2021/07/23 11:12:39;;;;;;;;;;;23.10;99.90;;;;;;5095478;28;19931;-79
2021/07/23 11:15:08;;;;;;;;;;;23.10;99.90;;;;;;5095602;28;19927;-79
2021/07/23 11:17:46;;;;;;;;;;;23.00;99.90;;;;;;5095438;28;19927;-80
2021/07/23 11:20:13;;;;;;;;;;;23.10;99.90;;;;;;5095585;28;19930;-80
2021/07/23 11:22:40;;;;;;;;;;;23.10;99.90;;;;;;5095453;28;19920;-80
2021/07/23 11:25:07;;;;;;;;;;;23.20;99.90;;;;;;5095265;28;19920;-80
2021/07/23 11:27:35;;;;;;;;;;;23.30;99.90;;;;;;5095558;28;19930;-80
2021/07/23 11:30:13;;;;;;;;;;;23.30;99.90;;;;;;5095544;28;19930;-85
2021/07/23 11:32:47;;;;;;;;;;;23.30;99.90;;;;;;5095644;28;19920;-80
2021/07/23 11:35:14;;;;;;;;;;;23.40;99.90;;;;;;5095311;28;20416;-80
2021/07/23 11:37:41;;;;;;;;;;;23.50;99.90;;;;;;5095317;28;19928;-80
2021/07/23 11:40:09;;;;;;;;;;;23.60;99.90;;;;;;5095208;28;19919;-80
2021/07/23 11:42:36;;;;;;;;;;;23.50;99.90;;;;;;5095641;28;19951;-80
2021/07/23 11:45:04;;;;;;;;;;;23.60;99.90;;;;;;5095303;28;19924;-81
2021/07/23 11:47:32;;;;;;;;;;;23.60;99.90;;;;;;5095180;28;19928;-80
2021/07/23 11:50:00;;;;;;;;;;;23.60;99.90;;;;;;5095178;28;19920;-80
2021/07/23 11:52:27;;;;;;;;;;;23.60;99.90;;;;;;5095172;28;19920;-81
2021/07/23 11:55:03;;;;;;;;;;;23.50;99.90;;;;;;5095579;28;19920;-80
2021/07/23 11:57:30;;;;;;;;;;;23.50;99.90;;;;;;5115593;28;19920;-81
2021/07/23 11:59:57;;;;;;;;;;;23.60;99.90;;;;;;5115573;28;19930;-79
2021/07/23 12:02:27;;;;;;;;;;;23.50;99.90;;;;;;5115764;28;20273;-81
2021/07/23 12:05:11;;;;;;;;;;;23.60;99.90;;;;;;5115529;28;19920;-80
2021/07/23 12:07:38;;;;;;;;;;;23.70;99.90;;;;;;5115354;28;19919;-80
2021/07/23 12:10:05;;;;;;;;;;;23.80;99.90;;;;;;5115595;28;20241;-81
2021/07/23 12:12:32;;;;;;;;;;;23.70;99.90;;;;;;5118837;28;20021;-81
2021/07/23 12:15:03;;;;;;;;;;;23.70;99.90;;;;;;5115197;28;20256;-81
2021/07/23 12:17:30;;;;;;;;;;;23.60;99.90;;;;;;5115391;28;19920;-79
2021/07/23 12:19:57;;;;;;;;;;;23.60;99.90;;;;;;5115451;28;19920;-81
2021/07/23 12:22:25;;;;;;;;;;;23.50;99.90;;;;;;5115222;28;20363;-85
2021/07/23 12:24:52;;;;;;;;;;;23.50;99.90;;;;;;5115281;28;20004;-83
2021/07/23 12:27:19;;;;;;;;;;;23.40;99.90;;;;;;5115340;28;19924;-83
2021/07/23 12:29:46;;;;;;;;;;;23.40;99.90;;;;;;5115115;28;19924;-84
2021/07/23 12:32:14;;;;;;;;;;;23.40;99.90;;;;;;5115391;28;19920;-84
2021/07/23 12:34:41;;;;;;;;;;;23.40;99.90;;;;;;5115215;28;19927;-84
2021/07/23 12:37:17;;;;;;;;;;;23.30;99.90;;;;;;5114908;28;20351;-84
2021/07/23 12:39:52;;;;;;;;;;;23.30;99.90;;;;;;5114803;28;19920;-84
2021/07/23 12:42:20;;;;;;;;;;;23.30;99.90;;;;;;5114955;28;19926;-84
2021/07/23 12:44:47;;;;;;;;;;;23.30;99.90;;;;;;5114895;28;19930;-84
2021/07/23 12:47:17;;;;;;;;;;;23.30;99.90;;;;;;5114854;28;19919;-83
2021/07/23 12:49:44;;;;;;;;;;;23.30;99.90;;;;;;5114948;28;19919;-84
2021/07/23 12:52:11;;;;;;;;;;;23.20;99.90;;;;;;5114902;28;19930;-84
2021/07/23 12:54:38;;;;;;;;;;;23.20;99.90;;;;;;5114961;28;19919;-84
2021/07/23 12:57:16;;;;;;;;;;;23.20;99.90;;;;;;5114958;28;20256;-83
2021/07/23 12:59:43;;;;;;;;;;;23.20;99.90;;;;;;5116574;28;19923;-82
2021/07/23 13:02:10;;;;;;;;;;;23.30;99.90;;;;;;5118820;28;20424;-85
2021/07/23 13:04:37;;;;;;;;;;;23.30;99.90;;;;;;5118556;28;20337;-85
2021/07/23 13:07:04;;;;;;;;;;;23.40;99.90;;;;;;5118435;28;19926;-84
2021/07/23 13:09:31;;;;;;;;;;;23.50;99.90;;;;;;5118568;28;19926;-85
2021/07/23 13:11:59;;;;;;;;;;;23.50;99.90;;;;;;5118449;28;19920;-85
2021/07/23 13:14:27;;;;;;;;;;;23.60;99.90;;;;;;5118542;28;19920;-84
2021/07/23 13:16:54;;;;;;;;;;;23.50;99.90;;;;;;5118273;28;19920;-84
2021/07/23 13:19:21;;;;;;;;;;;23.50;99.90;;;;;;5118286;28;19919;-85
2021/07/23 13:21:48;;;;;;;;;;;23.40;99.90;;;;;;5118191;28;19920;-84
2021/07/23 13:24:15;;;;;;;;;;;23.30;99.90;;;;;;5118184;28;19919;-84
2021/07/23 13:26:42;;;;;;;;;;;23.30;99.90;;;;;;5118239;28;19945;-84
2021/07/23 13:29:10;;;;;;;;;;;23.30;99.90;;;;;;5118321;28;19942;-84
2021/07/23 13:31:39;;;;;;;;;;;23.30;99.90;;;;;;5117914;28;19920;-84
2021/07/23 13:34:06;;;;;;;;;;;23.30;99.90;;;;;;5118031;28;19962;-85
2021/07/23 13:36:34;;;;;;;;;;;23.30;99.90;;;;;;5117710;28;19930;-85
2021/07/23 13:39:03;;;;;;;;;;;23.30;99.90;;;;;;5117928;28;19920;-84
2021/07/23 13:41:30;;;;;;;;;;;23.30;99.90;;;;;;5117789;28;19920;-84
2021/07/23 13:43:56;;;;;;;;;;;23.30;99.90;;;;;;5118136;28;20018;-84
2021/07/23 13:46:25;;;;;;;;;;;23.40;99.90;;;;;;5117747;28;20242;-85
2021/07/23 13:48:53;;;;;;;;;;;23.40;99.90;;;;;;5117659;28;19920;-85
2021/07/23 13:51:20;;;;;;;;;;;23.40;99.90;;;;;;5117595;28;19920;-84
2021/07/23 13:53:47;;;;;;;;;;;23.40;99.90;;;;;;5117445;28;19945;-85
2021/07/23 13:56:14;;;;;;;;;;;23.40;99.90;;;;;;5117524;28;20328;-84
2021/07/23 13:58:41;;;;;;;;;;;23.30;99.90;;;;;;5117404;28;19926;-85
2021/07/23 14:01:08;;;;;;;;;;;23.30;99.90;;;;;;5117377;28;19919;-84
2021/07/23 14:03:35;;;;;;;;;;;23.30;99.90;;;;;;5117280;28;20240;-84
2021/07/23 14:06:03;;;;;;;;;;;23.30;99.90;;;;;;5117193;28;19933;-84
2021/07/23 14:08:30;;;;;;;;;;;23.20;99.90;;;;;;5117303;28;20345;-84
2021/07/23 14:10:57;;;;;;;;;;;23.20;99.90;;;;;;5116213;28;19919;-85
2021/07/23 14:13:24;;;;;;;;;;;23.20;99.90;;;;;;5117109;28;19934;-85
2021/07/23 14:15:50;;;;;;;;;;;23.10;99.90;;;;;;5117221;28;19919;-83
2021/07/23 14:18:17;;;;;;;;;;;22.90;99.90;;;;;;5117038;28;19920;-83
2021/07/23 14:20:44;;;;;;;;;;;23.00;99.90;;;;;;5117292;28;20245;-84
2021/07/23 14:23:12;;;;;;;;;;;23.00;99.90;;;;;;5117196;28;20246;-84
2021/07/23 14:25:39;;;;;;;;;;;23.00;99.90;;;;;;5116918;28;19919;-85
2021/07/23 14:28:07;;;;;;;;;;;23.00;99.90;;;;;;5116803;28;19919;-84
2021/07/23 14:30:34;;;;;;;;;;;23.00;99.90;;;;;;5116788;28;19969;-84
2021/07/23 14:33:01;;;;;;;;;;;23.00;99.90;;;;;;5116657;28;19926;-85
2021/07/23 14:35:29;;;;;;;;;;;23.00;99.90;;;;;;5116752;28;19919;-84